Time;durP1;ratioP1;P1;durP2;ratioP2;P2;SDS_P1;SDS_P2;PMS_P1;PMS_P2;Temp;Humidity;BMP_temperature;BMP_pressure;BME280_temperature;BME280_humidity;BME280_pressure;Samples;Min_cycle;Max_cycle;Signal;HPM_P1;HPM_P2
2022/09/15 00:00:27;;;;;;;4.68;1.23;;;15.00;97.40;;;;;;4148527;28;20046;-81
2022/09/15 00:02:28;;;;;;;6.72;1.40;;;15.00;97.40;;;;;;4148279;28;20073;-81
2022/09/15 00:04:29;;;;;;;6.53;1.70;;;15.10;97.50;;;;;;4148167;28;20045;-81
2022/09/15 00:06:29;;;;;;;4.35;1.10;;;15.10;97.50;;;;;;4148041;28;20446;-81
2022/09/15 00:08:30;;;;;;;4.97;1.50;;;15.10;97.50;;;;;;4147932;28;20179;-81
2022/09/15 00:10:31;;;;;;;7.40;1.48;;;15.10;97.60;;;;;;4146835;28;20042;-81
2022/09/15 00:12:33;;;;;;;4.75;1.40;;;15.10;97.70;;;;;;4147542;28;20492;-81
2022/09/15 00:14:34;;;;;;;3.13;0.95;;;15.10;97.70;;;;;;4147831;28;20042;-81
2022/09/15 00:16:35;;;;;;;3.40;1.05;;;15.20;97.70;;;;;;4147803;28;20115;-81
2022/09/15 00:18:37;;;;;;;3.33;1.45;;;15.10;97.60;;;;;;4130040;28;20046;-81
2022/09/15 00:20:42;;;;;;;7.82;1.42;;;15.20;97.60;;;;;;4147599;28;20053;-81
2022/09/15 00:22:43;;;;;;;6.38;0.77;;;15.20;97.70;;;;;;4147168;28;20081;-80
2022/09/15 00:24:44;;;;;;;5.75;1.55;;;15.20;97.70;;;;;;4147983;28;20048;-80
2022/09/15 00:26:45;;;;;;;3.97;1.02;;;15.20;97.60;;;;;;4148617;28;20110;-80
2022/09/15 00:28:47;;;;;;;6.88;1.25;;;15.20;97.70;;;;;;4148357;28;20049;-81
2022/09/15 00:30:53;;;;;;;5.72;1.30;;;15.20;97.80;;;;;;4130801;28;20062;-81
2022/09/15 00:32:54;;;;;;;4.90;1.25;;;15.20;97.80;;;;;;4147855;28;20514;-81
2022/09/15 00:34:55;;;;;;;5.47;1.23;;;15.20;97.80;;;;;;4147894;28;20042;-81
2022/09/15 00:36:56;;;;;;;2.90;0.80;;;15.20;97.80;;;;;;4148067;28;20492;-81
2022/09/15 00:38:57;;;;;;;2.33;0.70;;;15.20;97.70;;;;;;4148050;28;20069;-81
2022/09/15 00:40:59;;;;;;;5.13;0.80;;;15.20;97.70;;;;;;4147821;28;20050;-81
2022/09/15 00:43:00;;;;;;;2.97;0.70;;;15.20;97.60;;;;;;4147624;28;20506;-81
2022/09/15 00:45:02;;;;;;;4.45;0.93;;;15.20;97.60;;;;;;4147640;28;20140;-81
2022/09/15 00:47:05;;;;;;;10.23;1.10;;;15.20;97.50;;;;;;4130089;28;20054;-81
2022/09/15 00:49:15;;;;;;;1.98;0.68;;;15.20;97.80;;;;;;4147983;28;20116;-81
2022/09/15 00:51:19;;;;;;;3.00;0.75;;;15.30;97.60;;;;;;4147859;28;20057;-81
2022/09/15 00:53:22;;;;;;;1.05;0.70;;;15.20;97.50;;;;;;4147708;28;20054;-81
2022/09/15 00:55:29;;;;;;;4.28;0.77;;;15.30;97.60;;;;;;4147730;28;20129;-81
2022/09/15 00:57:33;;;;;;;3.97;0.68;;;15.30;97.50;;;;;;4147896;28;20534;-81
2022/09/15 00:59:38;;;;;;;8.98;1.42;;;15.30;97.60;;;;;;4147458;28;20052;-81
2022/09/15 01:01:41;;;;;;;3.47;0.65;;;15.30;97.50;;;;;;4147860;28;20054;-81
2022/09/15 01:03:42;;;;;;;3.33;0.60;;;15.30;97.40;;;;;;4147567;28;20046;-81
2022/09/15 01:05:52;;;;;;;3.65;0.50;;;15.30;97.40;;;;;;4147372;28;20034;-81
2022/09/15 01:08:21;;;;;;;4.72;0.60;;;15.30;97.40;;;;;;4147341;28;20537;-80
2022/09/15 01:10:34;;;;;;;5.43;1.10;;;15.30;97.40;;;;;;4140686;28;20503;-81
2022/09/15 01:12:38;;;;;;;2.50;0.60;;;15.30;97.20;;;;;;4129658;28;20096;-80
2022/09/15 01:14:38;;;;;;;3.10;0.60;;;15.30;97.40;;;;;;4147029;28;20506;-81
2022/09/15 01:16:55;;;;;;;3.55;1.05;;;15.30;97.20;;;;;;4129488;28;20125;-80
2022/09/15 01:19:20;;;;;;;5.90;0.75;;;15.30;97.20;;;;;;4147291;28;20507;-81
2022/09/15 01:21:46;;;;;;;2.08;0.43;;;15.30;97.20;;;;;;4146888;28;20081;-81
2022/09/15 01:24:23;;;;;;;4.40;0.60;;;15.30;97.20;;;;;;4129541;28;20488;-81
2022/09/15 01:26:55;;;;;;;3.92;0.80;;;15.30;97.10;;;;;;4146980;28;20488;-81
2022/09/15 01:29:33;;;;;;;5.05;0.60;;;15.30;97.00;;;;;;4140853;28;20056;-81
2022/09/15 01:34:18;;;;;;;3.67;0.77;;;15.30;96.80;;;;;;4148192;28;20103;-82
2022/09/15 01:36:20;;;;;;;1.85;0.50;;;15.30;96.80;;;;;;4149384;28;20483;-80
2022/09/15 01:38:44;;;;;;;4.50;1.63;;;15.40;96.80;;;;;;4148916;28;20050;-81
2022/09/15 01:40:59;;;;;;;2.40;0.65;;;15.30;96.70;;;;;;4147144;28;20084;-81
2022/09/15 01:43:00;;;;;;;6.13;1.35;;;15.30;96.70;;;;;;4148306;28;20090;-81
2022/09/15 01:45:07;;;;;;;4.03;0.82;;;15.40;96.70;;;;;;4147694;28;20058;-81
2022/09/15 01:47:11;;;;;;;11.50;1.58;;;15.40;96.60;;;;;;4147619;28;20053;-81
2022/09/15 01:49:19;;;;;;;5.03;1.02;;;15.40;96.60;;;;;;4130070;28;20046;-81
2022/09/15 01:51:22;;;;;;;5.32;0.73;;;15.40;96.60;;;;;;4146919;28;20049;-81
2022/09/15 01:53:23;;;;;;;6.13;1.20;;;15.40;96.50;;;;;;4147914;28;20049;-81
2022/09/15 01:55:36;;;;;;;6.38;1.38;;;15.40;96.40;;;;;;4133170;28;20046;-81
2022/09/15 01:57:36;;;;;;;12.90;1.13;;;15.40;96.30;;;;;;4150464;28;20041;-81
2022/09/15 01:59:37;;;;;;;3.05;0.45;;;15.40;96.20;;;;;;4150244;28;20389;-81
2022/09/15 02:02:11;;;;;;;9.52;1.15;;;15.40;96.20;;;;;;4149657;28;20128;-81
2022/09/15 02:04:29;;;;;;;5.13;0.70;;;15.40;96.50;;;;;;4138320;28;20061;-80
2022/09/15 02:06:48;;;;;;;9.38;1.55;;;15.30;96.80;;;;;;4132406;28;20054;-80
2022/09/15 02:09:01;;;;;;;9.02;1.30;;;15.20;97.20;;;;;;4149506;28;20089;-80
2022/09/15 02:11:15;;;;;;;6.45;0.63;;;15.10;97.40;;;;;;4131885;28;20050;-80
2022/09/15 02:13:44;;;;;;;8.65;1.55;;;15.00;97.80;;;;;;4132319;28;20046;-80
2022/09/15 02:15:52;;;;;;;4.55;0.70;;;15.00;98.00;;;;;;4104995;28;20059;-80
2022/09/15 02:17:54;;;;;;;3.97;0.65;;;14.90;98.40;;;;;;4149666;28;20388;-80
2022/09/15 02:20:10;;;;;;;5.13;0.98;;;14.80;98.40;;;;;;4149610;28;20120;-80
2022/09/15 02:22:16;;;;;;;4.63;0.77;;;14.70;98.70;;;;;;4149555;28;20053;-80
2022/09/15 02:24:22;;;;;;;4.55;0.85;;;14.70;98.90;;;;;;4149341;28;20047;-80
2022/09/15 02:26:26;;;;;;;6.35;0.98;;;14.60;99.00;;;;;;4148815;28;20045;-80
2022/09/15 02:28:31;;;;;;;2.00;0.50;;;14.60;99.20;;;;;;4132068;28;20054;-80
2022/09/15 02:30:36;;;;;;;6.97;0.93;;;14.60;99.30;;;;;;4149419;28;20096;-80
2022/09/15 02:32:41;;;;;;;7.00;0.73;;;14.50;99.30;;;;;;4149487;28;20046;-80
2022/09/15 02:34:46;;;;;;;3.97;0.93;;;14.50;99.40;;;;;;4149373;28;20072;-80
2022/09/15 02:36:48;;;;;;;4.30;1.10;;;14.40;99.40;;;;;;4149479;28;20117;-80
2022/09/15 02:38:56;;;;;;;4.38;0.70;;;14.30;99.50;;;;;;4148945;28;20077;-80
2022/09/15 02:40:57;;;;;;;7.57;1.10;;;14.30;99.70;;;;;;4149037;28;20125;-80
2022/09/15 02:43:00;;;;;;;5.53;0.60;;;14.20;99.70;;;;;;4149059;28;20096;-81
2022/09/15 02:45:02;;;;;;;4.20;0.70;;;14.20;99.80;;;;;;4148903;28;20525;-80
2022/09/15 02:47:03;;;;;;;7.53;0.98;;;14.20;99.80;;;;;;4148308;28;20081;-80
2022/09/15 02:49:04;;;;;;;10.75;1.77;;;14.20;99.90;;;;;;4148961;28;20040;-80
2022/09/15 02:51:05;;;;;;;4.78;1.65;;;14.20;99.90;;;;;;4148922;28;20453;-80
2022/09/15 02:53:06;;;;;;;5.22;0.60;;;14.20;99.90;;;;;;4148995;28;20046;-80
2022/09/15 02:55:07;;;;;;;6.28;0.70;;;14.20;99.90;;;;;;4148767;28;20049;-80
2022/09/15 02:57:08;;;;;;;2.33;0.73;;;14.20;99.90;;;;;;4149335;28;20046;-80
2022/09/15 02:59:09;;;;;;;5.72;0.75;;;14.20;99.90;;;;;;4149458;28;20044;-80
2022/09/15 03:01:14;;;;;;;5.20;0.88;;;14.30;99.90;;;;;;4149063;28;20045;-81
2022/09/15 03:03:15;;;;;;;7.85;1.08;;;14.20;99.90;;;;;;4132230;28;20042;-80
2022/09/15 03:05:19;;;;;;;3.22;0.98;;;14.20;99.90;;;;;;4148384;28;20065;-80
2022/09/15 03:07:20;;;;;;;8.52;1.63;;;14.20;99.90;;;;;;4149305;28;20045;-81
2022/09/15 03:09:21;;;;;;;3.05;1.38;;;14.20;99.90;;;;;;4149163;28;20053;-81
2022/09/15 03:11:23;;;;;;;2.50;0.55;;;14.20;99.90;;;;;;4148777;28;20085;-81
2022/09/15 03:13:24;;;;;;;4.00;0.47;;;14.20;99.90;;;;;;4149414;28;20037;-80
2022/09/15 03:15:26;;;;;;;4.90;0.70;;;14.20;99.90;;;;;;4149247;28;20046;-80
2022/09/15 03:17:26;;;;;;;3.85;1.00;;;14.20;99.90;;;;;;4148979;28;20116;-80
2022/09/15 03:19:27;;;;;;;2.65;0.75;;;14.10;99.90;;;;;;4149192;28;20049;-80
2022/09/15 03:21:29;;;;;;;4.28;0.70;;;14.20;99.90;;;;;;4149164;28;20048;-80
2022/09/15 03:23:30;;;;;;;5.03;0.60;;;14.10;99.90;;;;;;4131595;28;20509;-80
2022/09/15 03:25:31;;;;;;;10.52;1.13;;;14.10;99.90;;;;;;4131853;28;20046;-80
2022/09/15 03:27:33;;;;;;;2.50;0.60;;;14.10;99.90;;;;;;4131520;28;20050;-80
2022/09/15 03:29:34;;;;;;;9.10;1.42;;;14.10;99.90;;;;;;4148945;28;20045;-80
2022/09/15 03:31:34;;;;;;;7.38;1.30;;;14.10;99.90;;;;;;4131348;28;20523;-80
2022/09/15 03:33:35;;;;;;;5.57;0.65;;;14.10;99.90;;;;;;4149112;28;20124;-80
2022/09/15 03:35:37;;;;;;;5.43;0.70;;;14.10;99.90;;;;;;4148356;28;20038;-80
2022/09/15 03:37:37;;;;;;;3.85;0.85;;;14.10;99.90;;;;;;4148906;28;20049;-80
2022/09/15 03:39:38;;;;;;;10.02;1.38;;;14.10;99.90;;;;;;4148896;28;20038;-80
2022/09/15 03:41:39;;;;;;;5.07;1.00;;;14.00;99.90;;;;;;4148823;28;20088;-80
2022/09/15 03:43:40;;;;;;;1.65;0.40;;;14.00;99.90;;;;;;4148891;28;20041;-80
2022/09/15 03:45:41;;;;;;;2.33;0.70;;;14.00;99.90;;;;;;4131110;28;20058;-80
2022/09/15 03:47:41;;;;;;;6.35;0.60;;;14.00;99.90;;;;;;4132018;28;20492;-80
2022/09/15 03:49:43;;;;;;;5.22;0.88;;;14.00;99.90;;;;;;4132429;28;20053;-80
2022/09/15 03:51:43;;;;;;;6.43;0.52;;;14.00;99.90;;;;;;4132617;28;20484;-79
2022/09/15 03:53:44;;;;;;;4.72;0.90;;;14.00;99.90;;;;;;4132219;28;20049;-80
2022/09/15 03:55:47;;;;;;;7.13;1.10;;;14.00;99.90;;;;;;4132444;28;20408;-80
2022/09/15 03:57:47;;;;;;;4.22;0.55;;;14.00;99.90;;;;;;4132579;28;20046;-80
2022/09/15 03:59:48;;;;;;;3.15;0.93;;;14.00;99.90;;;;;;4132139;28;20065;-80
2022/09/15 04:01:49;;;;;;;8.55;1.15;;;14.00;99.90;;;;;;4132313;28;20049;-79
2022/09/15 04:03:50;;;;;;;11.05;1.13;;;14.00;99.90;;;;;;4132324;28;20042;-79
2022/09/15 04:05:51;;;;;;;4.40;0.80;;;14.00;99.90;;;;;;4132298;28;20053;-80
2022/09/15 04:07:52;;;;;;;8.27;1.67;;;14.00;99.80;;;;;;4132254;28;20492;-79
2022/09/15 04:09:53;;;;;;;4.40;1.08;;;14.00;99.90;;;;;;4132605;28;20507;-80
2022/09/15 04:11:53;;;;;;;4.22;0.57;;;14.00;99.70;;;;;;4132296;28;20045;-80
2022/09/15 04:13:54;;;;;;;8.65;0.90;;;14.00;99.80;;;;;;4130464;28;20074;-80
2022/09/15 04:16:00;;;;;;;7.40;1.00;;;14.00;99.70;;;;;;4132120;28;20512;-80
2022/09/15 04:18:00;;;;;;;10.52;1.08;;;14.00;99.70;;;;;;4131533;28;20073;-80
2022/09/15 04:20:01;;;;;;;4.53;1.20;;;14.00;99.80;;;;;;4132129;28;20477;-80
2022/09/15 04:22:02;;;;;;;9.05;1.17;;;14.00;99.70;;;;;;4131580;28;20428;-80
2022/09/15 04:24:04;;;;;;;7.68;0.93;;;14.00;99.80;;;;;;4132055;28;20173;-80
2022/09/15 04:26:10;;;;;;;5.80;0.85;;;14.00;99.90;;;;;;4131484;28;20047;-80
2022/09/15 04:28:11;;;;;;;11.02;1.63;;;14.00;99.80;;;;;;4131521;28;20062;-79
2022/09/15 04:30:12;;;;;;;4.82;0.70;;;14.00;99.80;;;;;;4130791;28;20493;-80
2022/09/15 04:32:12;;;;;;;10.93;0.80;;;14.00;99.60;;;;;;4131790;28;20535;-79
2022/09/15 04:34:13;;;;;;;8.30;1.13;;;14.00;99.70;;;;;;4132143;28;20129;-79
2022/09/15 04:36:20;;;;;;;5.00;0.75;;;13.90;99.60;;;;;;4131904;28;20046;-79
2022/09/15 04:38:20;;;;;;;7.03;1.52;;;14.00;99.70;;;;;;4132719;28;20054;-80
2022/09/15 04:40:21;;;;;;;10.07;0.80;;;13.90;99.60;;;;;;4131283;28;20503;-80
2022/09/15 04:42:22;;;;;;;6.97;1.33;;;13.90;99.50;;;;;;4132391;28;20050;-81
2022/09/15 04:44:23;;;;;;;5.78;0.75;;;13.90;99.50;;;;;;4131522;28;20538;-81
2022/09/15 04:46:25;;;;;;;4.22;0.60;;;13.90;99.50;;;;;;4147786;28;20121;-80
2022/09/15 04:48:26;;;;;;;3.25;0.75;;;13.80;99.40;;;;;;4147580;28;20042;-81
2022/09/15 04:50:26;;;;;;;7.03;1.63;;;13.80;99.30;;;;;;4129723;28;20045;-81
2022/09/15 04:52:27;;;;;;;4.30;0.80;;;13.80;99.30;;;;;;4146493;28;20053;-81
2022/09/15 04:54:28;;;;;;;8.77;1.27;;;13.80;99.30;;;;;;4146092;28;20550;-81
2022/09/15 04:56:28;;;;;;;9.00;1.00;;;13.80;99.20;;;;;;4147236;28;20046;-81
2022/09/15 04:58:29;;;;;;;4.70;0.93;;;13.80;99.10;;;;;;4147659;28;20056;-80
2022/09/15 05:00:33;;;;;;;7.22;1.13;;;13.80;99.20;;;;;;4148227;28;20050;-80
2022/09/15 05:02:33;;;;;;;5.45;0.80;;;13.80;99.20;;;;;;4147470;28;20125;-81
2022/09/15 05:04:34;;;;;;;7.13;1.38;;;13.80;99.00;;;;;;4148047;28;20049;-81
2022/09/15 05:06:35;;;;;;;8.75;1.35;;;13.80;98.90;;;;;;4148664;28;20050;-81
2022/09/15 05:08:36;;;;;;;6.18;1.58;;;13.80;98.80;;;;;;4147283;28;20049;-81
2022/09/15 05:10:38;;;;;;;4.07;0.65;;;13.70;98.80;;;;;;4146892;28;20452;-82
2022/09/15 05:12:40;;;;;;;7.75;0.80;;;13.70;98.60;;;;;;4147035;28;20044;-82
2022/09/15 05:14:41;;;;;;;2.60;0.52;;;13.70;98.50;;;;;;4146940;28;20053;-81
2022/09/15 05:16:41;;;;;;;6.65;0.90;;;13.70;98.40;;;;;;4147516;28;20391;-82
2022/09/15 05:18:44;;;;;;;7.60;0.75;;;13.70;98.40;;;;;;4146812;28;20536;-82
2022/09/15 05:20:44;;;;;;;6.95;0.68;;;13.60;98.40;;;;;;4144485;28;20045;-82
2022/09/15 05:22:45;;;;;;;7.90;0.77;;;13.60;98.30;;;;;;4129248;28;20565;-82
2022/09/15 05:24:46;;;;;;;2.08;0.60;;;13.60;98.30;;;;;;4147208;28;20061;-82
2022/09/15 05:26:46;;;;;;;8.40;1.27;;;13.60;98.20;;;;;;4129867;28;20046;-81
2022/09/15 05:28:48;;;;;;;6.50;0.90;;;13.50;98.20;;;;;;4114035;28;20504;-81
2022/09/15 05:30:50;;;;;;;10.23;1.13;;;13.50;98.20;;;;;;4150401;28;20053;-81
2022/09/15 05:32:52;;;;;;;5.53;1.00;;;13.50;98.10;;;;;;4150033;28;20038;-81
2022/09/15 05:34:53;;;;;;;7.30;1.40;;;13.50;98.00;;;;;;4150389;28;20499;-81
2022/09/15 05:36:53;;;;;;;5.22;0.70;;;13.60;98.00;;;;;;4150021;28;20042;-81
2022/09/15 05:38:55;;;;;;;5.85;0.80;;;13.60;97.90;;;;;;4150244;28;20404;-81
2022/09/15 05:41:14;;;;;;;6.88;1.00;;;13.60;97.80;;;;;;4132504;28;20046;-82
2022/09/15 05:43:16;;;;;;;6.07;0.80;;;13.60;97.70;;;;;;4149713;28;20554;-82
2022/09/15 05:45:17;;;;;;;6.60;0.60;;;13.70;97.60;;;;;;4150726;28;20088;-81
2022/09/15 05:47:17;;;;;;;5.57;0.85;;;13.70;97.50;;;;;;4149942;28;20488;-81
2022/09/15 05:49:18;;;;;;;5.18;1.23;;;13.70;97.40;;;;;;4132579;28;20034;-80
2022/09/15 05:51:20;;;;;;;10.65;0.85;;;13.80;97.40;;;;;;4149768;28;20128;-80
2022/09/15 05:53:23;;;;;;;6.05;1.02;;;13.80;97.30;;;;;;4149508;28;20411;-81
2022/09/15 05:55:23;;;;;;;8.05;1.30;;;13.80;97.20;;;;;;4149922;28;20373;-81
2022/09/15 05:57:24;;;;;;;7.82;0.70;;;13.80;97.20;;;;;;4149862;28;20045;-81
2022/09/15 05:59:25;;;;;;;3.75;0.80;;;13.80;97.20;;;;;;4149948;28;20084;-81
2022/09/15 06:01:27;;;;;;;4.15;0.80;;;13.80;97.10;;;;;;4149068;28;20053;-80
2022/09/15 06:03:28;;;;;;;4.10;0.80;;;13.80;97.00;;;;;;4150076;28;20046;-81
2022/09/15 06:05:29;;;;;;;4.15;0.85;;;13.90;97.00;;;;;;4149538;28;20077;-80
2022/09/15 06:07:30;;;;;;;10.13;0.80;;;13.90;97.00;;;;;;4149682;28;20538;-80
2022/09/15 06:09:30;;;;;;;5.32;1.42;;;13.90;96.90;;;;;;4149776;28;20050;-81
2022/09/15 06:11:32;;;;;;;4.95;0.77;;;13.90;96.80;;;;;;4132560;28;20054;-81
2022/09/15 06:13:33;;;;;;;5.28;1.40;;;14.00;96.80;;;;;;4149412;28;20589;-81
2022/09/15 06:15:34;;;;;;;4.28;0.90;;;14.00;96.70;;;;;;4149546;28;20038;-81
2022/09/15 06:17:34;;;;;;;4.38;0.75;;;14.10;96.70;;;;;;4149586;28;20046;-81
2022/09/15 06:19:35;;;;;;;6.97;0.85;;;14.10;96.50;;;;;;4149618;28;20050;-81
2022/09/15 06:21:36;;;;;;;1.77;0.38;;;14.10;96.50;;;;;;4132401;28;20129;-81
2022/09/15 06:23:37;;;;;;;7.85;0.90;;;14.10;96.50;;;;;;4132426;28;20468;-81
2022/09/15 06:25:38;;;;;;;5.43;1.08;;;14.20;96.40;;;;;;4149380;28;20411;-81
2022/09/15 06:27:39;;;;;;;8.38;0.90;;;14.30;96.40;;;;;;4149727;28;20125;-82
2022/09/15 06:29:40;;;;;;;5.47;0.93;;;14.30;96.40;;;;;;4150058;28;20060;-81
2022/09/15 06:31:41;;;;;;;3.45;0.57;;;14.40;96.40;;;;;;4149851;28;20046;-81
2022/09/15 06:33:43;;;;;;;5.70;0.98;;;14.40;96.40;;;;;;4149668;28;20089;-81
2022/09/15 06:35:44;;;;;;;5.13;0.77;;;14.40;96.30;;;;;;4149449;28;20038;-81
2022/09/15 06:37:44;;;;;;;2.92;0.50;;;14.50;96.60;;;;;;4149645;28;20054;-81
2022/09/15 06:39:45;;;;;;;4.20;0.70;;;14.60;96.60;;;;;;4131914;28;20092;-81
2022/09/15 06:41:46;;;;;;;4.95;0.47;;;14.60;96.60;;;;;;4149477;28;20435;-81
2022/09/15 06:43:48;;;;;;;8.50;0.65;;;14.60;96.70;;;;;;4149498;28;20426;-81
2022/09/15 06:45:49;;;;;;;4.95;0.57;;;14.60;96.90;;;;;;4131386;28;20062;-81
2022/09/15 06:47:51;;;;;;;5.38;0.60;;;14.70;96.80;;;;;;4149310;28;20499;-81
2022/09/15 06:49:54;;;;;;;5.30;0.80;;;14.70;96.80;;;;;;4149709;28;20033;-81
2022/09/15 06:51:55;;;;;;;3.97;0.82;;;14.80;96.80;;;;;;4149741;28;20037;-81
2022/09/15 06:53:56;;;;;;;3.80;0.85;;;14.80;96.80;;;;;;4149592;28;20060;-81
2022/09/15 06:56:04;;;;;;;3.33;0.50;;;14.80;96.50;;;;;;4149247;28;20050;-81
2022/09/15 06:58:05;;;;;;;4.18;1.23;;;14.90;96.40;;;;;;4149563;28;20054;-81
2022/09/15 07:00:07;;;;;;;2.70;0.75;;;14.90;96.20;;;;;;4148863;28;20048;-81
2022/09/15 07:02:08;;;;;;;6.68;0.90;;;15.00;96.20;;;;;;4148570;28;20562;-81
2022/09/15 07:04:09;;;;;;;2.67;0.68;;;15.00;96.10;;;;;;4148864;28;20046;-81
2022/09/15 07:06:13;;;;;;;4.00;0.45;;;15.00;96.00;;;;;;4149363;28;20161;-81
2022/09/15 07:08:14;;;;;;;5.63;0.50;;;15.10;95.90;;;;;;4149216;28;20046;-81
2022/09/15 07:10:15;;;;;;;4.10;0.60;;;15.10;95.90;;;;;;4132001;28;20567;-81
2022/09/15 07:12:15;;;;;;;4.05;0.77;;;15.30;95.90;;;;;;4149313;28;20049;-81
2022/09/15 07:14:16;;;;;;;5.00;0.70;;;15.40;95.70;;;;;;4148790;28;20042;-81
2022/09/15 07:16:18;;;;;;;2.95;0.30;;;15.60;95.50;;;;;;4149363;28;20160;-81
2022/09/15 07:18:20;;;;;;;5.25;0.60;;;15.80;95.40;;;;;;4149334;28;20045;-81
2022/09/15 07:20:21;;;;;;;2.60;0.45;;;16.00;95.30;;;;;;4131861;28;20078;-81
2022/09/15 07:22:23;;;;;;;8.35;1.25;;;16.10;95.10;;;;;;4149297;28;20046;-81
2022/09/15 07:24:24;;;;;;;2.42;0.40;;;16.20;95.10;;;;;;4149199;28;20506;-81
2022/09/15 07:26:27;;;;;;;4.03;0.50;;;16.20;95.00;;;;;;4149069;28;20056;-82
2022/09/15 07:28:28;;;;;;;3.22;0.95;;;16.20;95.30;;;;;;4148642;28;20491;-81
2022/09/15 07:30:28;;;;;;;3.20;0.60;;;16.10;95.10;;;;;;4149052;28;20044;-81
2022/09/15 07:32:29;;;;;;;5.68;0.60;;;16.10;95.20;;;;;;4149026;28;20056;-82
2022/09/15 07:34:30;;;;;;;6.13;0.52;;;16.00;95.10;;;;;;4148897;28;20050;-82
2022/09/15 07:36:31;;;;;;;3.13;0.50;;;16.00;95.20;;;;;;4148672;28;20046;-81
2022/09/15 07:38:32;;;;;;;10.45;0.93;;;16.00;95.30;;;;;;4148592;28;20538;-81
2022/09/15 07:40:33;;;;;;;3.45;0.50;;;16.00;95.40;;;;;;4148251;28;20046;-82
2022/09/15 07:42:34;;;;;;;9.43;1.17;;;16.00;95.20;;;;;;4148822;28;20465;-82
2022/09/15 07:44:34;;;;;;;5.28;1.60;;;16.00;95.30;;;;;;4148579;28;20095;-81
2022/09/15 07:46:35;;;;;;;7.65;0.85;;;15.90;95.20;;;;;;4148513;28;20048;-82
2022/09/15 07:48:36;;;;;;;5.40;0.60;;;15.90;95.20;;;;;;4148600;28;20397;-81
2022/09/15 07:50:37;;;;;;;4.13;0.60;;;15.80;95.10;;;;;;4148494;28;20041;-81
2022/09/15 07:52:37;;;;;;;6.10;0.85;;;15.80;95.20;;;;;;4147464;28;20395;-81
2022/09/15 07:54:38;;;;;;;7.80;0.60;;;15.70;95.40;;;;;;4148628;28;20046;-81
2022/09/15 07:56:39;;;;;;;3.72;1.15;;;15.70;95.60;;;;;;4148669;28;20052;-81
2022/09/15 07:58:39;;;;;;;9.48;0.65;;;15.60;95.80;;;;;;4148643;28;20112;-81
2022/09/15 08:00:40;;;;;;;5.57;0.93;;;15.60;95.90;;;;;;4148644;28;20460;-81
2022/09/15 08:02:41;;;;;;;6.00;0.47;;;15.70;96.00;;;;;;4148155;28;20052;-81
2022/09/15 08:04:42;;;;;;;5.70;0.90;;;15.70;96.10;;;;;;4148609;28;20038;-82
2022/09/15 08:06:43;;;;;;;10.20;1.00;;;15.80;96.10;;;;;;4148486;28;20045;-81
2022/09/15 08:08:44;;;;;;;4.22;0.70;;;15.90;96.10;;;;;;4131079;28;20054;-81
2022/09/15 08:10:45;;;;;;;6.22;0.90;;;16.00;96.10;;;;;;4130825;28;20126;-81
2022/09/15 08:12:46;;;;;;;4.55;1.15;;;16.10;96.00;;;;;;4147920;28;20053;-81
2022/09/15 08:14:47;;;;;;;5.28;0.63;;;16.20;96.00;;;;;;4147326;28;20060;-82
2022/09/15 08:16:48;;;;;;;6.25;0.93;;;16.40;95.90;;;;;;4130451;28;20046;-82
2022/09/15 08:18:51;;;;;;;5.93;1.20;;;16.50;95.70;;;;;;4146545;28;20101;-82
2022/09/15 08:20:51;;;;;;;7.63;1.48;;;16.70;95.60;;;;;;4146672;28;20054;-82
2022/09/15 08:22:52;;;;;;;3.92;0.88;;;17.60;95.00;;;;;;4147367;28;20053;-82
2022/09/15 08:24:53;;;;;;;17.92;1.52;;;18.50;93.70;;;;;;4147658;28;20045;-82
2022/09/15 08:26:54;;;;;;;3.55;1.42;;;18.70;93.30;;;;;;4146208;28;20104;-82
2022/09/15 08:28:55;;;;;;;5.50;1.33;;;18.60;93.20;;;;;;4147542;28;20042;-82
2022/09/15 08:31:05;;;;;;;4.57;1.38;;;18.60;93.30;;;;;;4147487;28;20045;-82
2022/09/15 08:33:06;;;;;;;6.43;0.70;;;18.60;93.10;;;;;;4147783;28;20100;-82
2022/09/15 08:35:07;;;;;;;7.13;1.30;;;18.90;93.10;;;;;;4130292;28;20086;-82
2022/09/15 08:37:08;;;;;;;5.55;0.90;;;19.10;92.70;;;;;;4147839;28;20034;-82
2022/09/15 08:39:09;;;;;;;7.20;1.50;;;19.30;92.40;;;;;;4148078;28;20081;-82
2022/09/15 08:41:18;;;;;;;7.28;0.88;;;19.30;92.30;;;;;;4147865;28;20087;-82
2022/09/15 08:43:22;;;;;;;4.85;0.68;;;19.10;91.90;;;;;;4147447;28;20049;-82
2022/09/15 08:45:31;;;;;;;6.80;0.88;;;18.90;92.30;;;;;;4147609;28;20112;-82
2022/09/15 08:47:42;;;;;;;3.35;0.60;;;18.70;92.30;;;;;;4147861;28;20130;-82
2022/09/15 08:50:14;;;;;;;3.17;0.60;;;18.50;92.40;;;;;;4147961;28;20041;-82
2022/09/15 08:52:33;;;;;;;4.07;0.70;;;18.80;92.30;;;;;;4147980;28;20046;-82
2022/09/15 08:54:34;;;;;;;;;;;20.20;91.20;;;;;;4130094;28;20558;-81
2022/09/15 08:56:36;;;;;;;6.75;0.63;;;21.00;90.50;;;;;;4147572;28;19921;-81
2022/09/15 08:58:36;;;;;;;3.53;0.70;;;20.80;90.30;;;;;;4147887;28;20169;-82
2022/09/15 09:00:39;;;;;;;1.15;0.47;;;20.40;90.20;;;;;;4130680;28;20050;-81
2022/09/15 09:03:09;;;;;;;6.43;0.63;;;20.00;90.50;;;;;;4147795;28;20042;-81
2022/09/15 09:05:28;;;;;;;4.22;0.75;;;19.60;90.70;;;;;;4133640;28;20543;-81
2022/09/15 09:07:38;;;;;;;4.97;0.93;;;19.30;91.10;;;;;;4147845;28;20538;-82
2022/09/15 09:09:51;;;;;;;3.88;0.60;;;18.90;91.60;;;;;;4147507;28;20065;-81
2022/09/15 09:12:04;;;;;;;5.43;0.57;;;18.60;92.10;;;;;;4147531;28;20042;-81
2022/09/15 09:14:16;;;;;;;5.95;1.25;;;18.10;92.80;;;;;;4147617;28;20160;-81
2022/09/15 09:16:36;;;;;;;6.47;0.95;;;17.80;93.50;;;;;;4147695;28;20488;-82
2022/09/15 09:18:48;;;;;;;4.53;1.55;;;17.40;93.90;;;;;;4147713;28;20488;-82
2022/09/15 09:20:55;;;;;;;6.03;0.90;;;17.30;94.50;;;;;;4147648;28;20045;-81
2022/09/15 09:23:00;;;;;;;8.10;0.70;;;17.30;94.80;;;;;;4147651;28;20073;-82
2022/09/15 09:25:02;;;;;;;7.43;1.80;;;17.40;95.00;;;;;;4147808;28;20045;-81
2022/09/15 09:27:08;;;;;;;3.75;0.57;;;17.30;95.20;;;;;;4146272;28;20140;-81
2022/09/15 09:29:25;;;;;;;7.80;1.15;;;17.20;95.40;;;;;;4147923;28;20046;-81
2022/09/15 09:31:27;;;;;;;6.72;1.27;;;17.00;95.70;;;;;;4148189;28;20081;-82
2022/09/15 09:33:40;;;;;;;5.10;1.20;;;16.90;95.90;;;;;;4148573;28;20121;-81
2022/09/15 09:36:00;;;;;;;6.00;1.05;;;16.80;96.20;;;;;;4148677;28;20046;-82
2022/09/15 09:38:01;;;;;;;3.97;0.70;;;16.70;96.30;;;;;;4149526;28;20073;-82
2022/09/15 09:40:02;;;;;;;9.02;1.10;;;16.60;96.30;;;;;;4148672;28;20042;-82
2022/09/15 09:42:05;;;;;;;3.50;1.00;;;16.50;96.50;;;;;;4148444;28;20442;-82
2022/09/15 09:44:10;;;;;;;6.63;1.20;;;16.50;96.60;;;;;;4148147;28;20125;-81
2022/09/15 09:46:17;;;;;;;3.88;0.60;;;16.50;96.60;;;;;;4131141;28;20555;-82
2022/09/15 09:48:20;;;;;;;3.30;0.90;;;16.50;96.60;;;;;;4149204;28;20061;-82
2022/09/15 09:50:37;;;;;;;3.05;0.68;;;16.50;96.80;;;;;;4148599;28;20069;-81
2022/09/15 09:52:38;;;;;;;5.03;1.00;;;16.60;96.80;;;;;;4131599;28;20138;-81
2022/09/15 09:54:40;;;;;;;4.03;0.85;;;16.60;96.60;;;;;;4148425;28;20042;-81
2022/09/15 09:56:43;;;;;;;6.03;1.27;;;16.60;96.20;;;;;;4146941;28;20042;-82
2022/09/15 09:58:44;;;;;;;4.05;0.63;;;16.50;95.80;;;;;;4146761;28;20523;-81
2022/09/15 10:00:46;;;;;;;7.13;0.75;;;16.50;95.70;;;;;;4147405;28;20042;-82
2022/09/15 10:02:47;;;;;;;2.45;0.60;;;16.50;95.40;;;;;;4148278;28;20061;-82
2022/09/15 10:05:04;;;;;;;4.97;0.50;;;16.50;95.20;;;;;;4148017;28;20575;-82
2022/09/15 10:07:06;;;;;;;3.25;1.02;;;16.60;94.90;;;;;;4146684;28;20487;-82
2022/09/15 10:09:16;;;;;;;4.40;1.05;;;16.70;94.90;;;;;;4146762;28;20050;-82
2022/09/15 10:11:16;;;;;;;6.03;0.77;;;16.80;94.60;;;;;;4147132;28;20045;-82
2022/09/15 10:13:17;;;;;;;3.63;0.63;;;16.90;94.40;;;;;;4146890;28;20076;-82
2022/09/15 10:15:27;;;;;;;7.68;0.75;;;17.10;94.30;;;;;;4130751;28;20042;-82
2022/09/15 10:17:38;;;;;;;;;;;17.10;94.30;;;;;;4149380;28;20524;-82
2022/09/15 10:19:43;;;;;;;3.50;0.88;;;17.20;94.80;;;;;;4148848;28;20450;-82
2022/09/15 10:21:44;;;;;;;5.85;1.33;;;17.30;94.50;;;;;;4150090;28;20049;-82
2022/09/15 10:23:45;;;;;;;5.97;0.70;;;17.20;94.50;;;;;;4150059;28;20121;-82
2022/09/15 10:25:46;;;;;;;3.90;0.63;;;17.20;94.90;;;;;;4149905;28;20038;-82
2022/09/15 10:28:08;;;;;;;5.13;0.60;;;17.10;94.60;;;;;;4148322;28;20130;-81
2022/09/15 10:30:12;;;;;;;7.28;0.95;;;17.00;95.00;;;;;;4149975;28;20046;-82
2022/09/15 10:32:26;;;;;;;5.20;0.70;;;16.90;95.20;;;;;;4149943;28;20076;-82
2022/09/15 10:34:31;;;;;;;2.88;0.70;;;16.80;95.80;;;;;;4132437;28;20050;-82
2022/09/15 10:36:31;;;;;;;5.53;0.88;;;16.70;96.00;;;;;;4149521;28;20049;-82
2022/09/15 10:38:46;;;;;;;3.65;0.65;;;16.60;96.30;;;;;;4149864;28;20068;-82
2022/09/15 10:40:52;;;;;;;4.25;2.15;;;16.60;96.50;;;;;;4131678;28;20060;-82
2022/09/15 10:43:04;;;;;;;6.55;0.77;;;16.60;96.70;;;;;;4149836;28;20407;-82
2022/09/15 10:45:08;;;;;;;6.88;0.52;;;16.50;96.80;;;;;;4149339;28;20404;-82
2022/09/15 10:47:33;;;;;;;2.90;0.63;;;16.50;97.00;;;;;;4149325;28;20101;-82
2022/09/15 10:49:45;;;;;;;2.17;0.50;;;16.50;97.40;;;;;;4149650;28;20407;-82